sensor_id;sensor_type;location;lat;lon;timestamp;P1;durP1;ratioP1;P2;durP2;ratioP2
76550;SDS011;68768;53.156;18.164;2023-07-30T00:00:28;5.00;;;4.40;;
76550;SDS011;68768;53.156;18.164;2023-07-30T00:03:15;6.40;;;5.10;;
76550;SDS011;68768;53.156;18.164;2023-07-30T00:05:42;6.70;;;4.30;;
76550;SDS011;68768;53.156;18.164;2023-07-30T00:08:09;6.10;;;4.40;;
76550;SDS011;68768;53.156;18.164;2023-07-30T00:10:36;6.00;;;4.20;;
76550;SDS011;68768;53.156;18.164;2023-07-30T00:13:03;4.30;;;3.80;;
76550;SDS011;68768;53.156;18.164;2023-07-30T00:15:30;5.80;;;4.10;;
76550;SDS011;68768;53.156;18.164;2023-07-30T00:17:57;6.60;;;4.30;;
76550;SDS011;68768;53.156;18.164;2023-07-30T00:20:24;5.40;;;4.00;;
76550;SDS011;68768;53.156;18.164;2023-07-30T00:22:51;7.40;;;4.10;;
76550;SDS011;68768;53.156;18.164;2023-07-30T00:25:18;7.40;;;3.30;;
76550;SDS011;68768;53.156;18.164;2023-07-30T00:27:45;5.10;;;3.70;;
76550;SDS011;68768;53.156;18.164;2023-07-30T00:30:12;5.80;;;3.20;;
76550;SDS011;68768;53.156;18.164;2023-07-30T00:32:39;5.70;;;3.80;;
76550;SDS011;68768;53.156;18.164;2023-07-30T00:37:36;4.80;;;3.20;;
76550;SDS011;68768;53.156;18.164;2023-07-30T00:40:04;4.20;;;3.50;;
76550;SDS011;68768;53.156;18.164;2023-07-30T00:42:31;5.80;;;3.50;;
76550;SDS011;68768;53.156;18.164;2023-07-30T00:44:58;4.80;;;3.50;;
76550;SDS011;68768;53.156;18.164;2023-07-30T00:47:26;5.40;;;3.50;;
76550;SDS011;68768;53.156;18.164;2023-07-30T00:49:53;6.00;;;3.50;;
76550;SDS011;68768;53.156;18.164;2023-07-30T00:52:20;6.00;;;3.70;;
76550;SDS011;68768;53.156;18.164;2023-07-30T00:54:49;5.90;;;3.50;;
76550;SDS011;68768;53.156;18.164;2023-07-30T00:57:18;5.80;;;3.30;;
76550;SDS011;68768;53.156;18.164;2023-07-30T00:59:46;6.10;;;3.70;;
76550;SDS011;68768;53.156;18.164;2023-07-30T01:02:14;4.70;;;3.80;;
76550;SDS011;68768;53.156;18.164;2023-07-30T01:04:42;5.50;;;3.90;;
76550;SDS011;68768;53.156;18.164;2023-07-30T01:07:09;6.10;;;3.90;;
76550;SDS011;68768;53.156;18.164;2023-07-30T01:09:36;6.00;;;3.80;;
76550;SDS011;68768;53.156;18.164;2023-07-30T01:12:03;4.50;;;4.00;;
76550;SDS011;68768;53.156;18.164;2023-07-30T01:14:32;6.60;;;4.00;;
76550;SDS011;68768;53.156;18.164;2023-07-30T01:16:59;6.80;;;4.20;;
76550;SDS011;68768;53.156;18.164;2023-07-30T01:19:26;5.90;;;4.30;;
76550;SDS011;68768;53.156;18.164;2023-07-30T01:21:53;7.20;;;4.50;;
76550;SDS011;68768;53.156;18.164;2023-07-30T01:24:20;5.30;;;4.20;;
76550;SDS011;68768;53.156;18.164;2023-07-30T01:26:52;9.30;;;4.70;;
76550;SDS011;68768;53.156;18.164;2023-07-30T01:29:32;6.60;;;4.30;;
76550;SDS011;68768;53.156;18.164;2023-07-30T01:32:05;9.80;;;5.30;;
76550;SDS011;68768;53.156;18.164;2023-07-30T01:34:35;7.80;;;5.10;;
76550;SDS011;68768;53.156;18.164;2023-07-30T01:37:09;7.10;;;5.00;;
76550;SDS011;68768;53.156;18.164;2023-07-30T01:39:39;9.70;;;4.80;;
76550;SDS011;68768;53.156;18.164;2023-07-30T01:42:11;10.40;;;5.10;;
76550;SDS011;68768;53.156;18.164;2023-07-30T01:44:39;6.60;;;5.20;;
76550;SDS011;68768;53.156;18.164;2023-07-30T01:47:06;8.20;;;5.30;;
76550;SDS011;68768;53.156;18.164;2023-07-30T01:49:33;8.70;;;5.30;;
76550;SDS011;68768;53.156;18.164;2023-07-30T01:52:01;8.70;;;5.60;;
76550;SDS011;68768;53.156;18.164;2023-07-30T01:54:28;10.80;;;5.40;;
76550;SDS011;68768;53.156;18.164;2023-07-30T01:56:55;10.70;;;5.90;;
76550;SDS011;68768;53.156;18.164;2023-07-30T01:59:22;10.60;;;5.70;;
76550;SDS011;68768;53.156;18.164;2023-07-30T02:01:49;9.50;;;6.00;;
76550;SDS011;68768;53.156;18.164;2023-07-30T02:04:16;9.80;;;6.20;;
76550;SDS011;68768;53.156;18.164;2023-07-30T02:06:45;8.20;;;5.90;;
76550;SDS011;68768;53.156;18.164;2023-07-30T02:09:12;8.10;;;6.10;;
76550;SDS011;68768;53.156;18.164;2023-07-30T02:11:39;8.00;;;6.00;;
76550;SDS011;68768;53.156;18.164;2023-07-30T02:14:06;10.30;;;6.10;;
76550;SDS011;68768;53.156;18.164;2023-07-30T02:16:33;8.60;;;6.00;;
76550;SDS011;68768;53.156;18.164;2023-07-30T02:19:00;7.90;;;5.80;;
76550;SDS011;68768;53.156;18.164;2023-07-30T02:21:28;10.50;;;6.10;;
76550;SDS011;68768;53.156;18.164;2023-07-30T02:24:02;10.00;;;6.10;;
76550;SDS011;68768;53.156;18.164;2023-07-30T02:26:35;8.60;;;6.20;;
76550;SDS011;68768;53.156;18.164;2023-07-30T02:29:02;9.40;;;6.10;;
76550;SDS011;68768;53.156;18.164;2023-07-30T02:31:30;8.50;;;6.30;;
76550;SDS011;68768;53.156;18.164;2023-07-30T02:33:58;11.60;;;6.70;;
76550;SDS011;68768;53.156;18.164;2023-07-30T02:36:25;10.20;;;6.80;;
76550;SDS011;68768;53.156;18.164;2023-07-30T02:38:52;13.20;;;6.90;;
76550;SDS011;68768;53.156;18.164;2023-07-30T02:41:19;9.30;;;7.00;;
76550;SDS011;68768;53.156;18.164;2023-07-30T02:43:48;8.60;;;6.50;;
76550;SDS011;68768;53.156;18.164;2023-07-30T02:46:19;9.90;;;6.70;;
76550;SDS011;68768;53.156;18.164;2023-07-30T02:48:46;9.70;;;7.10;;
76550;SDS011;68768;53.156;18.164;2023-07-30T02:51:22;10.40;;;7.00;;
76550;SDS011;68768;53.156;18.164;2023-07-30T02:53:51;8.30;;;7.00;;
76550;SDS011;68768;53.156;18.164;2023-07-30T02:56:20;10.00;;;7.00;;
76550;SDS011;68768;53.156;18.164;2023-07-30T02:58:47;10.50;;;6.70;;
76550;SDS011;68768;53.156;18.164;2023-07-30T03:01:15;8.90;;;6.60;;
76550;SDS011;68768;53.156;18.164;2023-07-30T03:03:42;8.00;;;6.30;;
76550;SDS011;68768;53.156;18.164;2023-07-30T03:06:09;10.70;;;6.60;;
76550;SDS011;68768;53.156;18.164;2023-07-30T03:08:37;8.90;;;6.30;;
76550;SDS011;68768;53.156;18.164;2023-07-30T03:11:05;12.30;;;7.20;;
76550;SDS011;68768;53.156;18.164;2023-07-30T03:13:32;10.30;;;6.40;;
76550;SDS011;68768;53.156;18.164;2023-07-30T03:15:59;8.70;;;5.90;;
76550;SDS011;68768;53.156;18.164;2023-07-30T03:18:26;10.20;;;6.40;;
76550;SDS011;68768;53.156;18.164;2023-07-30T03:20:57;10.20;;;6.90;;
76550;SDS011;68768;53.156;18.164;2023-07-30T03:23:26;8.90;;;6.50;;
76550;SDS011;68768;53.156;18.164;2023-07-30T03:25:54;11.40;;;6.50;;
76550;SDS011;68768;53.156;18.164;2023-07-30T03:28:21;8.00;;;5.50;;
76550;SDS011;68768;53.156;18.164;2023-07-30T03:30:48;8.40;;;5.90;;
76550;SDS011;68768;53.156;18.164;2023-07-30T03:33:15;7.10;;;5.60;;
76550;SDS011;68768;53.156;18.164;2023-07-30T03:35:43;7.20;;;5.30;;
76550;SDS011;68768;53.156;18.164;2023-07-30T03:38:10;9.70;;;5.70;;
76550;SDS011;68768;53.156;18.164;2023-07-30T03:40:37;8.20;;;6.10;;
76550;SDS011;68768;53.156;18.164;2023-07-30T03:43:04;9.30;;;6.20;;
76550;SDS011;68768;53.156;18.164;2023-07-30T03:45:31;9.60;;;6.50;;
76550;SDS011;68768;53.156;18.164;2023-07-30T03:47:59;10.60;;;6.90;;
76550;SDS011;68768;53.156;18.164;2023-07-30T03:50:26;10.50;;;6.40;;
76550;SDS011;68768;53.156;18.164;2023-07-30T03:52:55;11.70;;;6.70;;
76550;SDS011;68768;53.156;18.164;2023-07-30T03:55:22;10.10;;;7.30;;
76550;SDS011;68768;53.156;18.164;2023-07-30T03:57:49;11.50;;;7.20;;
76550;SDS011;68768;53.156;18.164;2023-07-30T04:00:16;10.90;;;8.00;;
76550;SDS011;68768;53.156;18.164;2023-07-30T04:02:44;14.80;;;9.10;;
76550;SDS011;68768;53.156;18.164;2023-07-30T04:05:11;13.70;;;9.30;;
76550;SDS011;68768;53.156;18.164;2023-07-30T04:07:38;15.70;;;9.90;;
76550;SDS011;68768;53.156;18.164;2023-07-30T04:10:06;12.90;;;9.10;;
76550;SDS011;68768;53.156;18.164;2023-07-30T04:12:33;13.30;;;8.50;;
76550;SDS011;68768;53.156;18.164;2023-07-30T04:15:00;13.40;;;8.20;;
76550;SDS011;68768;53.156;18.164;2023-07-30T04:17:28;18.80;;;7.80;;
76550;SDS011;68768;53.156;18.164;2023-07-30T04:19:55;9.50;;;6.80;;
76550;SDS011;68768;53.156;18.164;2023-07-30T04:22:22;10.00;;;7.20;;
76550;SDS011;68768;53.156;18.164;2023-07-30T04:24:49;11.50;;;7.10;;
76550;SDS011;68768;53.156;18.164;2023-07-30T04:27:16;10.80;;;7.80;;
76550;SDS011;68768;53.156;18.164;2023-07-30T04:29:44;11.80;;;7.20;;
76550;SDS011;68768;53.156;18.164;2023-07-30T04:32:11;10.80;;;7.00;;
76550;SDS011;68768;53.156;18.164;2023-07-30T04:34:38;12.50;;;7.60;;
76550;SDS011;68768;53.156;18.164;2023-07-30T04:37:06;10.90;;;7.60;;
76550;SDS011;68768;53.156;18.164;2023-07-30T04:39:35;10.50;;;7.20;;
76550;SDS011;68768;53.156;18.164;2023-07-30T04:42:03;11.20;;;7.80;;
76550;SDS011;68768;53.156;18.164;2023-07-30T04:44:30;12.50;;;7.80;;
76550;SDS011;68768;53.156;18.164;2023-07-30T04:47:03;9.60;;;6.60;;
76550;SDS011;68768;53.156;18.164;2023-07-30T04:49:30;10.60;;;7.10;;
76550;SDS011;68768;53.156;18.164;2023-07-30T04:51:57;12.20;;;7.10;;
76550;SDS011;68768;53.156;18.164;2023-07-30T04:54:25;10.20;;;6.90;;
76550;SDS011;68768;53.156;18.164;2023-07-30T04:56:52;11.50;;;7.70;;
76550;SDS011;68768;53.156;18.164;2023-07-30T04:59:20;12.70;;;8.20;;
76550;SDS011;68768;53.156;18.164;2023-07-30T05:01:47;11.50;;;8.20;;
76550;SDS011;68768;53.156;18.164;2023-07-30T05:04:14;11.80;;;7.40;;
76550;SDS011;68768;53.156;18.164;2023-07-30T05:06:41;14.00;;;8.40;;
76550;SDS011;68768;53.156;18.164;2023-07-30T05:09:08;10.60;;;7.70;;
76550;SDS011;68768;53.156;18.164;2023-07-30T05:11:38;13.10;;;8.40;;
76550;SDS011;68768;53.156;18.164;2023-07-30T05:14:05;11.10;;;7.40;;
76550;SDS011;68768;53.156;18.164;2023-07-30T05:16:32;12.70;;;7.50;;
76550;SDS011;68768;53.156;18.164;2023-07-30T05:18:59;10.80;;;7.20;;
76550;SDS011;68768;53.156;18.164;2023-07-30T05:21:26;11.70;;;7.50;;
76550;SDS011;68768;53.156;18.164;2023-07-30T05:23:53;10.70;;;7.70;;
76550;SDS011;68768;53.156;18.164;2023-07-30T05:26:20;9.90;;;6.80;;
76550;SDS011;68768;53.156;18.164;2023-07-30T05:28:47;10.20;;;7.50;;
76550;SDS011;68768;53.156;18.164;2023-07-30T05:31:15;12.90;;;9.00;;
76550;SDS011;68768;53.156;18.164;2023-07-30T05:33:41;11.90;;;8.20;;
76550;SDS011;68768;53.156;18.164;2023-07-30T05:36:09;16.90;;;10.80;;
76550;SDS011;68768;53.156;18.164;2023-07-30T05:38:35;13.30;;;8.50;;
76550;SDS011;68768;53.156;18.164;2023-07-30T05:41:02;11.10;;;8.60;;
76550;SDS011;68768;53.156;18.164;2023-07-30T05:43:29;11.60;;;8.70;;
76550;SDS011;68768;53.156;18.164;2023-07-30T05:45:56;12.10;;;7.80;;
76550;SDS011;68768;53.156;18.164;2023-07-30T05:48:23;12.40;;;7.90;;
76550;SDS011;68768;53.156;18.164;2023-07-30T05:50:50;13.20;;;8.50;;
76550;SDS011;68768;53.156;18.164;2023-07-30T05:53:17;10.70;;;7.80;;
76550;SDS011;68768;53.156;18.164;2023-07-30T05:55:44;10.70;;;8.10;;
76550;SDS011;68768;53.156;18.164;2023-07-30T05:58:13;11.70;;;8.20;;
76550;SDS011;68768;53.156;18.164;2023-07-30T06:00:40;11.50;;;8.40;;
76550;SDS011;68768;53.156;18.164;2023-07-30T06:03:08;12.40;;;7.70;;
76550;SDS011;68768;53.156;18.164;2023-07-30T06:05:40;12.80;;;9.00;;
76550;SDS011;68768;53.156;18.164;2023-07-30T06:08:08;11.60;;;7.80;;
76550;SDS011;68768;53.156;18.164;2023-07-30T06:10:36;13.00;;;8.70;;
76550;SDS011;68768;53.156;18.164;2023-07-30T06:13:05;11.90;;;8.70;;
76550;SDS011;68768;53.156;18.164;2023-07-30T06:15:32;10.90;;;8.20;;
76550;SDS011;68768;53.156;18.164;2023-07-30T06:18:01;11.30;;;7.80;;
76550;SDS011;68768;53.156;18.164;2023-07-30T06:20:29;11.80;;;8.20;;
76550;SDS011;68768;53.156;18.164;2023-07-30T06:22:56;11.40;;;8.90;;
76550;SDS011;68768;53.156;18.164;2023-07-30T06:25:23;12.50;;;8.50;;
76550;SDS011;68768;53.156;18.164;2023-07-30T06:27:50;11.50;;;8.20;;
76550;SDS011;68768;53.156;18.164;2023-07-30T06:30:19;11.30;;;8.60;;
76550;SDS011;68768;53.156;18.164;2023-07-30T06:32:47;10.50;;;8.10;;
76550;SDS011;68768;53.156;18.164;2023-07-30T06:35:14;12.40;;;8.30;;
76550;SDS011;68768;53.156;18.164;2023-07-30T06:37:41;12.10;;;8.60;;
76550;SDS011;68768;53.156;18.164;2023-07-30T06:40:08;11.80;;;8.20;;
76550;SDS011;68768;53.156;18.164;2023-07-30T06:42:35;11.80;;;8.10;;
76550;SDS011;68768;53.156;18.164;2023-07-30T06:45:02;11.50;;;8.10;;
76550;SDS011;68768;53.156;18.164;2023-07-30T06:47:30;10.90;;;8.70;;
76550;SDS011;68768;53.156;18.164;2023-07-30T06:49:57;11.20;;;8.50;;
76550;SDS011;68768;53.156;18.164;2023-07-30T06:52:24;11.10;;;8.90;;
76550;SDS011;68768;53.156;18.164;2023-07-30T06:54:51;12.00;;;9.00;;
76550;SDS011;68768;53.156;18.164;2023-07-30T06:57:19;10.70;;;8.20;;
76550;SDS011;68768;53.156;18.164;2023-07-30T06:59:46;14.20;;;8.20;;
76550;SDS011;68768;53.156;18.164;2023-07-30T07:02:13;10.40;;;7.80;;
76550;SDS011;68768;53.156;18.164;2023-07-30T07:04:40;12.90;;;8.30;;
76550;SDS011;68768;53.156;18.164;2023-07-30T07:07:07;11.20;;;7.50;;
76550;SDS011;68768;53.156;18.164;2023-07-30T07:09:35;8.20;;;6.90;;
76550;SDS011;68768;53.156;18.164;2023-07-30T07:12:02;9.60;;;7.70;;
76550;SDS011;68768;53.156;18.164;2023-07-30T07:14:30;17.30;;;13.00;;
76550;SDS011;68768;53.156;18.164;2023-07-30T07:16:58;21.60;;;15.10;;
76550;SDS011;68768;53.156;18.164;2023-07-30T07:19:25;14.60;;;9.90;;
76550;SDS011;68768;53.156;18.164;2023-07-30T07:21:52;8.30;;;7.40;;
76550;SDS011;68768;53.156;18.164;2023-07-30T07:24:20;10.90;;;8.00;;
76550;SDS011;68768;53.156;18.164;2023-07-30T07:26:47;16.70;;;11.20;;
76550;SDS011;68768;53.156;18.164;2023-07-30T07:29:14;8.30;;;7.00;;
76550;SDS011;68768;53.156;18.164;2023-07-30T07:31:41;21.20;;;13.10;;
76550;SDS011;68768;53.156;18.164;2023-07-30T07:34:08;18.00;;;11.00;;
76550;SDS011;68768;53.156;18.164;2023-07-30T07:36:36;8.00;;;7.10;;
76550;SDS011;68768;53.156;18.164;2023-07-30T07:39:04;11.00;;;8.70;;
76550;SDS011;68768;53.156;18.164;2023-07-30T07:41:32;9.20;;;6.80;;
76550;SDS011;68768;53.156;18.164;2023-07-30T07:43:59;10.70;;;7.60;;
76550;SDS011;68768;53.156;18.164;2023-07-30T07:46:26;8.50;;;6.80;;
76550;SDS011;68768;53.156;18.164;2023-07-30T07:48:53;8.20;;;7.00;;
76550;SDS011;68768;53.156;18.164;2023-07-30T07:51:21;7.00;;;6.00;;
76550;SDS011;68768;53.156;18.164;2023-07-30T07:53:48;6.60;;;6.00;;
76550;SDS011;68768;53.156;18.164;2023-07-30T07:56:15;5.80;;;5.30;;
76550;SDS011;68768;53.156;18.164;2023-07-30T07:58:42;7.40;;;5.30;;
76550;SDS011;68768;53.156;18.164;2023-07-30T08:01:09;10.60;;;6.80;;
76550;SDS011;68768;53.156;18.164;2023-07-30T08:03:36;6.80;;;5.50;;
76550;SDS011;68768;53.156;18.164;2023-07-30T08:06:03;7.10;;;5.30;;
76550;SDS011;68768;53.156;18.164;2023-07-30T08:08:31;5.80;;;5.30;;
76550;SDS011;68768;53.156;18.164;2023-07-30T08:10:58;7.00;;;5.10;;
76550;SDS011;68768;53.156;18.164;2023-07-30T08:13:31;9.50;;;6.80;;
76550;SDS011;68768;53.156;18.164;2023-07-30T08:15:58;8.90;;;6.00;;
76550;SDS011;68768;53.156;18.164;2023-07-30T08:18:26;7.40;;;5.40;;
76550;SDS011;68768;53.156;18.164;2023-07-30T08:20:54;5.50;;;4.80;;
76550;SDS011;68768;53.156;18.164;2023-07-30T08:23:21;5.30;;;4.70;;
76550;SDS011;68768;53.156;18.164;2023-07-30T08:25:48;6.70;;;5.60;;
76550;SDS011;68768;53.156;18.164;2023-07-30T08:28:16;7.50;;;6.00;;
76550;SDS011;68768;53.156;18.164;2023-07-30T08:30:44;5.20;;;4.70;;
76550;SDS011;68768;53.156;18.164;2023-07-30T08:33:11;7.50;;;6.40;;
76550;SDS011;68768;53.156;18.164;2023-07-30T08:35:38;10.60;;;8.50;;
76550;SDS011;68768;53.156;18.164;2023-07-30T08:38:05;18.60;;;13.30;;
76550;SDS011;68768;53.156;18.164;2023-07-30T08:40:32;7.40;;;6.50;;
76550;SDS011;68768;53.156;18.164;2023-07-30T08:42:59;7.40;;;5.90;;
76550;SDS011;68768;53.156;18.164;2023-07-30T08:45:29;7.00;;;5.30;;
76550;SDS011;68768;53.156;18.164;2023-07-30T08:47:56;5.70;;;5.20;;
76550;SDS011;68768;53.156;18.164;2023-07-30T08:50:24;6.80;;;5.30;;
76550;SDS011;68768;53.156;18.164;2023-07-30T08:52:52;5.50;;;5.00;;
76550;SDS011;68768;53.156;18.164;2023-07-30T08:55:21;7.10;;;5.30;;
76550;SDS011;68768;53.156;18.164;2023-07-30T08:57:49;11.90;;;7.90;;
76550;SDS011;68768;53.156;18.164;2023-07-30T09:00:19;6.50;;;5.70;;
76550;SDS011;68768;53.156;18.164;2023-07-30T09:02:50;8.00;;;6.60;;
76550;SDS011;68768;53.156;18.164;2023-07-30T09:05:20;8.00;;;6.80;;
76550;SDS011;68768;53.156;18.164;2023-07-30T09:07:47;7.50;;;6.00;;
76550;SDS011;68768;53.156;18.164;2023-07-30T09:10:15;14.80;;;10.20;;
76550;SDS011;68768;53.156;18.164;2023-07-30T09:12:42;5.50;;;4.90;;
76550;SDS011;68768;53.156;18.164;2023-07-30T09:15:09;5.30;;;4.60;;
76550;SDS011;68768;53.156;18.164;2023-07-30T09:17:37;6.50;;;4.40;;
76550;SDS011;68768;53.156;18.164;2023-07-30T09:20:04;5.90;;;4.60;;
76550;SDS011;68768;53.156;18.164;2023-07-30T09:22:32;5.20;;;4.20;;
76550;SDS011;68768;53.156;18.164;2023-07-30T09:25:03;5.10;;;4.60;;
76550;SDS011;68768;53.156;18.164;2023-07-30T09:27:31;5.60;;;5.00;;
76550;SDS011;68768;53.156;18.164;2023-07-30T09:30:00;5.40;;;4.90;;
76550;SDS011;68768;53.156;18.164;2023-07-30T09:32:30;6.80;;;6.10;;
76550;SDS011;68768;53.156;18.164;2023-07-30T09:35:05;5.00;;;4.50;;
76550;SDS011;68768;53.156;18.164;2023-07-30T09:37:36;5.00;;;4.50;;
76550;SDS011;68768;53.156;18.164;2023-07-30T09:40:07;7.80;;;6.10;;
76550;SDS011;68768;53.156;18.164;2023-07-30T09:42:35;10.50;;;6.10;;
76550;SDS011;68768;53.156;18.164;2023-07-30T09:45:06;6.60;;;4.80;;
76550;SDS011;68768;53.156;18.164;2023-07-30T09:47:38;5.20;;;4.70;;
76550;SDS011;68768;53.156;18.164;2023-07-30T09:50:05;6.60;;;5.50;;
76550;SDS011;68768;53.156;18.164;2023-07-30T09:52:33;9.00;;;6.70;;
76550;SDS011;68768;53.156;18.164;2023-07-30T09:55:00;6.40;;;5.40;;
76550;SDS011;68768;53.156;18.164;2023-07-30T09:57:28;8.60;;;6.20;;
76550;SDS011;68768;53.156;18.164;2023-07-30T09:59:56;10.10;;;7.20;;
76550;SDS011;68768;53.156;18.164;2023-07-30T10:02:23;6.80;;;5.30;;
76550;SDS011;68768;53.156;18.164;2023-07-30T10:04:52;11.50;;;7.60;;
76550;SDS011;68768;53.156;18.164;2023-07-30T10:07:23;9.10;;;6.20;;
76550;SDS011;68768;53.156;18.164;2023-07-30T10:09:54;6.90;;;4.80;;
76550;SDS011;68768;53.156;18.164;2023-07-30T10:12:28;5.80;;;5.00;;
76550;SDS011;68768;53.156;18.164;2023-07-30T10:14:58;5.00;;;4.40;;
76550;SDS011;68768;53.156;18.164;2023-07-30T10:17:26;5.10;;;4.50;;
76550;SDS011;68768;53.156;18.164;2023-07-30T10:19:55;4.50;;;4.10;;
76550;SDS011;68768;53.156;18.164;2023-07-30T10:22:23;4.40;;;3.90;;
76550;SDS011;68768;53.156;18.164;2023-07-30T10:24:55;5.50;;;5.00;;
76550;SDS011;68768;53.156;18.164;2023-07-30T10:27:38;6.00;;;4.80;;
76550;SDS011;68768;53.156;18.164;2023-07-30T10:30:11;6.90;;;3.90;;
76550;SDS011;68768;53.156;18.164;2023-07-30T10:32:42;10.80;;;4.70;;
76550;SDS011;68768;53.156;18.164;2023-07-30T10:38:30;5.00;;;4.10;;
76550;SDS011;68768;53.156;18.164;2023-07-30T10:41:07;4.90;;;3.90;;
76550;SDS011;68768;53.156;18.164;2023-07-30T10:46:07;6.00;;;4.10;;
76550;SDS011;68768;53.156;18.164;2023-07-30T10:48:36;6.20;;;4.20;;
76550;SDS011;68768;53.156;18.164;2023-07-30T10:51:06;4.80;;;4.30;;
76550;SDS011;68768;53.156;18.164;2023-07-30T10:53:36;5.30;;;3.80;;
76550;SDS011;68768;53.156;18.164;2023-07-30T10:56:04;4.60;;;3.90;;
76550;SDS011;68768;53.156;18.164;2023-07-30T10:58:32;3.80;;;3.40;;
76550;SDS011;68768;53.156;18.164;2023-07-30T11:01:02;3.80;;;3.40;;
76550;SDS011;68768;53.156;18.164;2023-07-30T11:03:31;3.60;;;3.20;;
76550;SDS011;68768;53.156;18.164;2023-07-30T11:05:59;3.50;;;3.10;;
76550;SDS011;68768;53.156;18.164;2023-07-30T11:08:42;4.70;;;3.00;;
76550;SDS011;68768;53.156;18.164;2023-07-30T11:11:10;4.90;;;3.20;;
76550;SDS011;68768;53.156;18.164;2023-07-30T11:13:41;3.50;;;3.20;;
76550;SDS011;68768;53.156;18.164;2023-07-30T11:16:09;4.00;;;3.20;;
76550;SDS011;68768;53.156;18.164;2023-07-30T11:18:37;4.40;;;3.40;;
76550;SDS011;68768;53.156;18.164;2023-07-30T11:21:12;3.30;;;2.80;;
76550;SDS011;68768;53.156;18.164;2023-07-30T11:23:42;5.00;;;3.40;;
76550;SDS011;68768;53.156;18.164;2023-07-30T11:26:17;5.20;;;3.10;;
76550;SDS011;68768;53.156;18.164;2023-07-30T11:28:46;3.60;;;3.30;;
76550;SDS011;68768;53.156;18.164;2023-07-30T11:31:17;4.30;;;3.70;;
76550;SDS011;68768;53.156;18.164;2023-07-30T11:33:47;4.70;;;3.20;;
76550;SDS011;68768;53.156;18.164;2023-07-30T11:36:16;9.70;;;7.40;;
76550;SDS011;68768;53.156;18.164;2023-07-30T11:38:50;4.50;;;3.80;;
76550;SDS011;68768;53.156;18.164;2023-07-30T11:41:20;6.50;;;3.50;;
76550;SDS011;68768;53.156;18.164;2023-07-30T11:43:49;5.00;;;3.60;;
76550;SDS011;68768;53.156;18.164;2023-07-30T11:46:18;4.50;;;3.70;;
76550;SDS011;68768;53.156;18.164;2023-07-30T11:48:49;3.40;;;3.10;;
76550;SDS011;68768;53.156;18.164;2023-07-30T11:51:19;7.00;;;2.50;;
76550;SDS011;68768;53.156;18.164;2023-07-30T11:53:50;3.90;;;3.00;;
76550;SDS011;68768;53.156;18.164;2023-07-30T11:56:23;3.00;;;2.70;;
76550;SDS011;68768;53.156;18.164;2023-07-30T11:58:55;2.70;;;2.50;;
76550;SDS011;68768;53.156;18.164;2023-07-30T12:01:25;11.40;;;7.80;;
76550;SDS011;68768;53.156;18.164;2023-07-30T12:04:00;6.90;;;2.70;;
76550;SDS011;68768;53.156;18.164;2023-07-30T12:09:18;4.10;;;2.80;;
76550;SDS011;68768;53.156;18.164;2023-07-30T12:11:53;7.90;;;5.50;;
76550;SDS011;68768;53.156;18.164;2023-07-30T12:14:25;7.10;;;4.60;;
76550;SDS011;68768;53.156;18.164;2023-07-30T12:16:57;4.10;;;3.70;;
76550;SDS011;68768;53.156;18.164;2023-07-30T12:19:24;4.70;;;3.40;;
76550;SDS011;68768;53.156;18.164;2023-07-30T12:21:51;3.60;;;3.20;;
76550;SDS011;68768;53.156;18.164;2023-07-30T12:24:19;4.40;;;3.40;;
76550;SDS011;68768;53.156;18.164;2023-07-30T12:26:46;5.10;;;3.60;;
76550;SDS011;68768;53.156;18.164;2023-07-30T12:29:13;5.00;;;3.60;;
76550;SDS011;68768;53.156;18.164;2023-07-30T12:31:40;4.80;;;3.00;;
76550;SDS011;68768;53.156;18.164;2023-07-30T12:34:07;3.20;;;2.90;;
76550;SDS011;68768;53.156;18.164;2023-07-30T12:36:35;4.10;;;3.20;;
76550;SDS011;68768;53.156;18.164;2023-07-30T12:39:02;3.20;;;2.90;;
76550;SDS011;68768;53.156;18.164;2023-07-30T12:41:29;4.10;;;3.00;;
76550;SDS011;68768;53.156;18.164;2023-07-30T12:43:56;3.40;;;2.90;;
76550;SDS011;68768;53.156;18.164;2023-07-30T12:46:24;3.50;;;2.80;;
76550;SDS011;68768;53.156;18.164;2023-07-30T12:51:21;4.60;;;2.90;;
76550;SDS011;68768;53.156;18.164;2023-07-30T12:53:49;3.60;;;3.00;;
76550;SDS011;68768;53.156;18.164;2023-07-30T12:56:16;8.80;;;6.30;;
76550;SDS011;68768;53.156;18.164;2023-07-30T12:58:43;4.10;;;2.80;;
76550;SDS011;68768;53.156;18.164;2023-07-30T13:01:10;2.70;;;2.50;;
76550;SDS011;68768;53.156;18.164;2023-07-30T13:03:38;5.40;;;3.40;;
76550;SDS011;68768;53.156;18.164;2023-07-30T13:06:05;2.40;;;2.20;;
76550;SDS011;68768;53.156;18.164;2023-07-30T13:08:33;2.50;;;2.20;;
76550;SDS011;68768;53.156;18.164;2023-07-30T13:11:01;2.40;;;2.20;;
76550;SDS011;68768;53.156;18.164;2023-07-30T13:13:27;4.00;;;1.90;;
76550;SDS011;68768;53.156;18.164;2023-07-30T13:15:55;3.00;;;2.40;;
76550;SDS011;68768;53.156;18.164;2023-07-30T13:18:27;4.30;;;2.20;;
76550;SDS011;68768;53.156;18.164;2023-07-30T13:20:54;4.10;;;2.20;;
76550;SDS011;68768;53.156;18.164;2023-07-30T13:23:21;4.30;;;2.20;;
76550;SDS011;68768;53.156;18.164;2023-07-30T13:25:52;2.40;;;2.20;;
76550;SDS011;68768;53.156;18.164;2023-07-30T13:28:19;2.70;;;1.90;;
76550;SDS011;68768;53.156;18.164;2023-07-30T13:30:46;1.70;;;1.60;;
76550;SDS011;68768;53.156;18.164;2023-07-30T13:33:14;4.20;;;2.10;;
76550;SDS011;68768;53.156;18.164;2023-07-30T13:35:41;2.20;;;2.00;;
76550;SDS011;68768;53.156;18.164;2023-07-30T13:38:09;5.90;;;2.40;;
76550;SDS011;68768;53.156;18.164;2023-07-30T13:40:36;5.50;;;2.00;;
76550;SDS011;68768;53.156;18.164;2023-07-30T13:43:03;3.00;;;2.10;;
76550;SDS011;68768;53.156;18.164;2023-07-30T13:45:30;4.10;;;2.00;;
76550;SDS011;68768;53.156;18.164;2023-07-30T13:47:58;3.90;;;2.20;;
76550;SDS011;68768;53.156;18.164;2023-07-30T13:50:25;2.40;;;2.00;;
76550;SDS011;68768;53.156;18.164;2023-07-30T13:52:52;2.40;;;1.90;;
76550;SDS011;68768;53.156;18.164;2023-07-30T13:55:19;2.60;;;2.30;;
76550;SDS011;68768;53.156;18.164;2023-07-30T13:57:46;4.80;;;2.00;;
76550;SDS011;68768;53.156;18.164;2023-07-30T14:00:14;2.30;;;2.10;;
76550;SDS011;68768;53.156;18.164;2023-07-30T14:02:42;4.10;;;2.40;;
76550;SDS011;68768;53.156;18.164;2023-07-30T14:05:10;1.80;;;1.70;;
76550;SDS011;68768;53.156;18.164;2023-07-30T14:07:37;2.70;;;1.70;;
76550;SDS011;68768;53.156;18.164;2023-07-30T14:10:04;1.70;;;1.50;;
76550;SDS011;68768;53.156;18.164;2023-07-30T14:12:32;1.70;;;1.60;;
76550;SDS011;68768;53.156;18.164;2023-07-30T14:14:59;2.90;;;1.70;;
76550;SDS011;68768;53.156;18.164;2023-07-30T14:17:27;2.80;;;1.80;;
76550;SDS011;68768;53.156;18.164;2023-07-30T14:19:54;3.20;;;1.50;;
76550;SDS011;68768;53.156;18.164;2023-07-30T14:22:22;1.70;;;1.50;;
76550;SDS011;68768;53.156;18.164;2023-07-30T14:24:50;2.60;;;1.50;;
76550;SDS011;68768;53.156;18.164;2023-07-30T14:27:17;2.20;;;1.20;;
76550;SDS011;68768;53.156;18.164;2023-07-30T14:29:44;2.70;;;1.20;;
76550;SDS011;68768;53.156;18.164;2023-07-30T14:32:12;1.50;;;1.30;;
76550;SDS011;68768;53.156;18.164;2023-07-30T14:34:39;4.60;;;1.40;;
76550;SDS011;68768;53.156;18.164;2023-07-30T14:37:06;1.20;;;1.10;;
76550;SDS011;68768;53.156;18.164;2023-07-30T14:39:33;1.40;;;1.30;;
76550;SDS011;68768;53.156;18.164;2023-07-30T14:42:00;4.00;;;1.30;;
76550;SDS011;68768;53.156;18.164;2023-07-30T14:44:27;1.80;;;1.60;;
76550;SDS011;68768;53.156;18.164;2023-07-30T14:46:54;1.20;;;1.10;;
76550;SDS011;68768;53.156;18.164;2023-07-30T14:49:23;2.30;;;1.30;;